Latest Weather Observations for Edithburgh

IDS60801

Issued at 9:35 pm CST Wednesday 23 July 2014 (issued every 30 minutes, with the page automatically refreshed every 10 minutes)

About weather observations | Map of weather stations | Latest weather observations for SA | Other Formats
Station Details ID: 022046 Name: EDITHBURGH Lat: -35.11 Lon: 137.74 Height: 6.0 m
Data from the previous 72 hours. | See also: Recent months at Edithburgh
Date/Time
CST
Temp
°C
App
Temp
°C
Dew
Point
Rel
Hum
%
Delta-T
°C
Wind Press
QNH
hPa
Press
MSL
hPa
Rain
since 9 am
mm
Dir
 
Spd
km/h
Gust
km/h
Spd
kts
Gust
kts
23/09:30pm 11.5 5.9 8.9 84 1.3 NE 28 46 15 25 1008.4 1008.4 5.8
23/09:23pm 11.4 5.5 9.2 86 1.1 NE 30 48 16 26 1008.8 - 5.6
23/09:00pm 11.9 3.7 8.3 78 1.8 NE 41 54 22 29 1008.5 1008.5 5.0
23/08:30pm 12.0 5.0 8.6 80 1.7 NE 35 50 19 27 1009.0 1009.0 5.0
23/08:00pm 11.7 4.9 9.1 84 1.3 NE 35 46 19 25 1009.4 - 5.0
23/07:30pm 11.7 5.2 9.1 84 1.3 NE 33 48 18 26 1009.9 1009.9 5.0
23/07:00pm 11.5 5.3 9.5 87 1.0 NNE 32 48 17 26 1010.0 - 5.0
23/06:30pm 11.8 5.5 9.6 86 1.1 NE 33 48 18 26 1009.7 1009.7 4.6
23/06:00pm 11.9 5.6 9.7 86 1.1 NE 33 44 18 24 1009.6 1009.6 4.2
23/05:30pm 12.1 5.9 9.3 83 1.4 NE 32 43 17 23 1009.9 1009.9 3.8
23/05:00pm 12.3 6.5 9.3 82 1.5 NE 30 41 16 22 1009.7 - 3.6
23/04:30pm 12.1 6.3 9.5 84 1.3 NE 30 41 16 22 1009.9 1009.9 3.4
23/04:00pm 11.9 6.1 9.3 84 1.3 NE 30 39 16 21 1010.2 - 3.0
23/03:30pm 12.3 6.4 9.1 81 1.6 ENE 30 41 16 22 1009.9 1009.9 3.0
23/03:00pm 12.2 6.1 9.6 84 1.3 ENE 32 39 17 21 1010.9 1010.9 3.0
23/02:30pm 11.9 5.8 9.7 86 1.1 ENE 32 41 17 22 1010.9 1010.9 3.0
23/02:00pm 11.4 5.4 10.0 91 0.7 ENE 32 39 17 21 1011.3 - 3.0
23/01:30pm 11.2 6.0 10.4 95 0.4 ENE 28 35 15 19 1012.0 1012.0 3.0
23/01:00pm 11.1 7.0 10.1 94 0.5 ENE 22 30 12 16 1013.0 - 3.0
23/12:30pm 10.9 8.1 9.9 93 0.5 NE 15 19 8 10 1014.2 1014.2 2.2
23/12:00pm 11.2 8.7 9.8 91 0.7 N 13 20 7 11 1015.2 1015.2 1.4
23/11:30am 11.7 9.1 9.3 85 1.2 N 13 22 7 12 1015.3 1015.3 0.4
23/11:00am 12.5 9.4 8.7 77 1.9 NNE 15 24 8 13 1016.5 - 0.0
23/10:30am 12.6 10.2 8.6 76 2.0 NNE 11 19 6 10 1016.6 1016.7 0.0
23/10:00am 12.4 9.5 8.1 75 2.1 N 13 19 7 10 1017.0 - 0.0
23/09:30am 12.7 10.2 8.2 74 2.2 NNE 11 20 6 11 1016.8 1016.9 0.0
23/09:00am 12.2 9.0 7.0 70 2.5 NNE 13 20 7 11 1016.7 1016.8 0.0
23/08:30am 12.1 9.2 8.2 77 1.9 NE 13 17 7 9 1016.7 1016.8 0.0
23/08:00am 11.9 9.5 8.5 80 1.7 NE 11 17 6 9 1016.7 - 0.0
23/07:30am 11.5 8.2 8.0 79 1.7 NE 15 20 8 11 1017.0 1017.1 0.0
23/07:00am 12.1 9.2 8.0 76 2.0 NNE 13 20 7 11 1017.1 - 0.0
23/06:30am 12.4 9.0 7.7 73 2.3 NE 15 20 8 11 1016.9 1017.0 0.0
23/06:00am 12.3 8.6 7.8 74 2.2 NE 17 24 9 13 1016.7 1016.8 0.0
23/05:30am 12.3 8.4 7.3 71 2.4 NE 17 24 9 13 1016.8 1016.9 0.0
23/05:00am 12.2 7.8 7.2 71 2.4 NE 20 26 11 14 1016.8 - 0.0
23/04:30am 12.1 7.7 7.6 74 2.2 NE 20 28 11 15 1016.9 1017.0 0.0
23/04:00am 12.1 7.9 7.3 72 2.3 NE 19 24 10 13 1017.2 - 0.0
23/03:30am 11.9 7.5 7.6 75 2.1 NE 20 26 11 14 1017.7 1017.8 0.0
23/03:00am 12.0 7.5 7.0 71 2.4 NE 20 28 11 15 1017.9 1018.0 0.0
23/02:30am 12.1 7.8 6.9 70 2.5 NE 19 26 10 14 1018.3 1018.4 0.0
23/02:00am 12.2 7.6 6.5 68 2.7 NE 20 30 11 16 1018.4 - 0.0
23/01:30am 12.1 8.4 8.0 76 2.0 NNE 17 24 9 13 1018.7 1018.8 0.0
23/01:00am 12.0 9.0 7.9 76 2.0 NNE 13 20 7 11 1018.7 - 0.0
23/12:30am 12.2 8.8 7.7 74 2.2 NNE 15 22 8 12 1019.1 1019.2 0.0
23/12:00am 12.0 9.0 7.7 75 2.1 NNE 13 19 7 10 1019.5 1019.6 0.0
 
Date/Time
CST
Temp
°C
App
Temp
°C
Dew
Point
Rel
Hum
%
Delta-T
°C
Wind Press
QNH
hPa
Press
MSL
hPa
Rain
since 9 am
mm
Dir
 
Spd
km/h
Gust
km/h
Spd
kts
Gust
kts
22/11:30pm 12.6 8.9 6.5 66 2.9 NNE 15 24 8 13 1020.0 1020.0 0.0
22/11:00pm 12.8 8.5 7.0 68 2.8 NE 19 24 10 13 1020.1 - 0.0
22/10:30pm 12.6 8.5 7.7 72 2.4 ENE 19 24 10 13 1020.0 1020.0 0.0
22/10:00pm 12.5 8.8 7.8 73 2.3 ENE 17 20 9 11 1020.3 - 0.0
22/09:30pm 12.2 9.3 8.1 76 2.0 E 13 17 7 9 1020.4 1020.4 0.0
22/09:00pm 11.1 8.3 8.7 85 1.2 E 13 15 7 8 1020.7 1020.7 0.0
22/08:30pm 11.1 9.9 9.7 91 0.7 E 6 7 3 4 1020.7 1020.7 0.0
22/08:00pm 11.1 9.9 9.5 90 0.8 E 6 7 3 4 1020.7 - 0.0
22/07:30pm 11.1 9.6 9.3 89 0.9 E 7 7 4 4 1020.9 1020.9 0.0
22/07:00pm 11.0 9.6 9.0 87 1.0 ENE 6 7 3 4 1020.9 - 0.0
22/06:30pm 10.2 8.7 8.6 90 0.8 ENE 6 7 3 4 1020.9 1020.9 0.0
22/06:00pm 11.1 9.6 8.4 83 1.3 ENE 6 7 3 4 1020.5 1020.5 0.0
22/05:30pm 10.5 8.9 7.8 83 1.3 ENE 6 7 3 4 1020.8 1020.8 0.0
22/05:00pm 11.6 9.7 7.7 77 1.9 ENE 7 7 4 4 1020.7 - 0.0
22/04:30pm 12.3 10.0 7.6 73 2.3 ENE 9 13 5 7 1020.4 1020.4 0.0
22/04:00pm 12.4 9.5 8.3 76 2.0 NE 13 15 7 8 1020.6 - 0.0
22/03:30pm 12.7 9.8 8.0 73 2.3 ENE 13 15 7 8 1020.8 1020.8 0.0
22/03:00pm 13.2 10.7 8.1 71 2.5 ENE 11 13 6 7 1020.9 1020.9 0.0
22/02:30pm 13.0 10.4 7.9 71 2.5 NE 11 15 6 8 1021.2 1021.2 0.0
22/02:00pm 13.1 10.6 8.2 72 2.4 NE 11 13 6 7 1021.3 - 0.0
22/01:30pm 13.1 10.7 8.7 74 2.2 NE 11 15 6 8 1021.5 1021.5 0.0
22/01:00pm 13.1 10.6 8.2 72 2.4 ENE 11 15 6 8 1021.8 - 0.0
22/12:30pm 13.2 11.0 7.7 69 2.7 ENE 9 13 5 7 1022.2 1022.2 0.0
22/12:00pm 13.2 10.9 7.4 68 2.8 NE 9 13 5 7 1022.8 1022.8 0.0
22/11:30am 12.8 10.3 8.1 73 2.3 NE 11 13 6 7 1023.3 1023.3 0.0
22/11:00am 13.1 11.2 8.9 75 2.1 NNE 9 15 5 8 1023.7 - 0.0
22/10:30am 12.8 10.9 9.0 78 1.9 NNE 9 15 5 8 1024.1 1024.1 0.0
22/10:00am 13.0 11.0 8.6 74 2.2 NNE 9 15 5 8 1024.0 - 0.0
22/09:30am 12.8 10.8 8.8 76 2.0 NE 9 15 5 8 1024.0 1024.0 0.0
22/09:00am 12.2 9.8 8.8 80 1.7 ENE 11 15 6 8 1023.7 1023.7 0.0
22/08:30am 10.9 9.2 9.7 92 0.6 ENE 9 11 5 6 1023.5 1023.5 0.0
22/08:00am 8.3 6.4 7.4 94 0.4 NE 7 9 4 5 1023.4 - 0.0
22/07:30am 6.2 5.2 5.7 97 0.2 CALM 0 4 0 2 1023.2 1023.2 0.0
22/07:00am 6.5 5.3 6.5 100 0.0 N 2 4 1 2 1023.1 - 0.0
22/06:30am 5.7 4.3 5.5 99 0.1 N 2 2 1 1 1022.8 1022.8 0.0
22/06:00am 5.9 4.2 5.9 100 0.0 N 4 4 2 2 1022.6 1022.6 0.0
22/05:30am 6.1 4.4 6.1 100 0.0 N 4 6 2 3 1022.6 1022.6 0.0
22/05:00am 5.3 3.1 5.3 100 0.0 N 6 7 3 4 1022.5 - 0.0
22/04:30am 6.5 4.5 6.3 99 0.1 N 6 6 3 3 1022.4 1022.4 0.0
22/04:00am 7.9 7.0 7.7 99 0.1 N 2 4 1 2 1022.3 - 0.0
22/03:30am 8.2 7.3 7.8 97 0.2 N 2 4 1 2 1022.4 1022.4 0.0
22/03:00am 7.5 6.4 6.8 95 0.3 N 2 4 1 2 1022.4 1022.4 0.0
22/02:30am 7.0 5.8 6.3 95 0.3 N 2 4 1 2 1022.3 1022.3 0.0
22/02:00am 6.5 4.7 5.6 94 0.4 N 4 6 2 3 1022.4 - 0.0
22/01:30am 6.8 4.7 5.9 94 0.4 N 6 7 3 4 1022.5 1022.5 0.0
22/01:00am 7.3 5.8 6.6 95 0.3 NNW 4 6 2 3 1022.6 - 0.0
22/12:30am 7.6 5.8 7.2 97 0.2 NNW 6 7 3 4 1022.7 1022.7 0.0
22/12:00am 7.4 5.6 7.0 97 0.2 N 6 6 3 3 1022.9 1022.9 0.0
 
Date/Time
CST
Temp
°C
App
Temp
°C
Dew
Point
Rel
Hum
%
Delta-T
°C
Wind Press
QNH
hPa
Press
MSL
hPa
Rain
since 9 am
mm
Dir
 
Spd
km/h
Gust
km/h
Spd
kts
Gust
kts
21/11:30pm 6.8 4.9 6.6 99 0.1 N 6 6 3 3 1022.6 1022.6 0.0
21/11:00pm 8.8 7.4 8.8 100 0.0 NNE 6 9 3 5 1022.5 - 0.0
21/10:30pm 7.6 5.9 7.6 100 0.0 ENE 6 7 3 4 1022.5 1022.5 0.0
21/10:00pm 8.0 6.6 7.1 94 0.4 NE 4 6 2 3 1022.5 - 0.0
21/09:30pm 7.1 5.6 6.7 97 0.2 N 4 4 2 2 1022.6 1022.6 0.0
21/09:00pm 9.3 8.3 8.7 96 0.3 N 4 6 2 3 1022.6 1022.6 0.0
21/08:30pm 9.7 9.1 8.9 95 0.4 N 2 4 1 2 1022.4 1022.4 0.0
21/08:00pm 10.5 9.3 9.5 93 0.5 NNE 6 6 3 3 1022.2 - 0.0
21/07:30pm 9.3 8.0 7.8 90 0.7 ENE 4 6 2 3 1022.0 1022.0 0.0
21/07:00pm 10.9 10.7 9.1 89 0.9 CALM 0 0 0 0 1021.8 - 0.0
21/06:30pm 11.0 10.8 9.2 89 0.9 CALM 0 0 0 0 1021.6 1021.6 0.0
21/06:00pm 11.8 10.5 9.2 84 1.3 NE 6 7 3 4 1021.3 1021.3 0.0
21/05:30pm 11.6 10.6 8.8 83 1.4 N 4 6 2 3 1021.3 1021.3 0.0
21/05:00pm 11.5 10.2 9.3 86 1.1 N 6 6 3 3 1021.2 - 0.0
21/04:30pm 12.0 10.8 9.6 85 1.2 NE 6 7 3 4 1020.8 1020.8 0.0
21/04:00pm 12.9 11.0 9.1 78 1.9 NE 9 13 5 7 1020.7 - 0.0
21/03:30pm 12.7 10.7 8.7 76 2.0 NE 9 13 5 7 1020.5 1020.5 0.0
21/03:00pm 13.0 10.7 9.0 77 2.0 NE 11 15 6 8 1020.3 1020.3 0.0
21/02:30pm 13.5 11.2 8.9 74 2.3 NNE 11 15 6 8 1020.4 1020.4 0.0
21/02:00pm 13.1 10.8 9.1 77 2.0 NNE 11 17 6 9 1020.4 - 0.0
21/01:30pm 12.7 10.3 8.5 75 2.1 NNE 11 17 6 9 1020.5 1020.5 0.0
21/01:00pm 12.8 9.9 8.1 73 2.3 NNE 13 19 7 10 1021.0 - 0.0
21/12:30pm 13.4 10.6 8.6 73 2.4 NNE 13 19 7 10 1021.4 1021.4 0.0
21/12:00pm 12.7 9.4 8.2 74 2.2 NNE 15 19 8 10 1021.8 1021.8 0.0
21/11:30am 13.1 10.2 8.2 72 2.4 NNE 13 19 7 10 1022.4 1022.4 0.0
21/11:00am 12.9 10.4 8.0 72 2.4 NNE 11 19 6 10 1022.4 - 0.0
21/10:30am 11.8 9.7 8.1 78 1.8 NNE 9 17 5 9 1022.6 1022.6 0.0
21/10:00am 11.5 9.3 8.0 79 1.7 NNE 9 17 5 9 1022.6 - 0.0
21/09:30am 11.5 8.9 7.8 78 1.8 N 11 17 6 9 1022.5 1022.5 0.0
21/09:00am 10.6 8.4 7.7 82 1.4 N 9 15 5 8 1022.4 1022.4 0.0
21/08:30am 10.2 8.0 7.7 84 1.2 N 9 13 5 7 1022.2 1022.2 0.0
21/08:00am 10.6 7.4 6.8 77 1.8 NNE 13 19 7 10 1022.1 - 0.0
21/07:30am 10.7 7.9 7.1 78 1.7 NNE 11 19 6 10 1022.1 1022.1 0.0
21/07:00am 10.3 7.9 7.1 80 1.5 NNE 9 15 5 8 1022.1 - 0.0
21/06:30am 10.7 7.9 7.1 78 1.7 NNE 11 19 6 10 1021.8 1021.8 0.0
21/06:00am 10.7 8.1 7.6 81 1.5 NNE 11 19 6 10 1021.6 1021.6 0.0
21/05:30am 10.4 8.2 7.7 83 1.3 NNE 9 15 5 8 1021.6 1021.6 0.0
21/05:00am 10.5 7.8 7.3 80 1.5 NNE 11 17 6 9 1021.6 - 0.0
21/04:30am 10.3 7.6 7.4 82 1.4 NNE 11 17 6 9 1021.6 1021.6 0.0
21/04:00am 10.2 7.5 7.2 82 1.4 NNE 11 17 6 9 1021.7 - 0.0
21/03:30am 10.4 7.2 7.0 79 1.6 NNE 13 20 7 11 1021.8 1021.8 0.0
21/03:00am 10.5 7.4 7.1 79 1.6 NNE 13 20 7 11 1021.8 1021.8 0.0
21/02:30am 10.6 7.2 7.5 81 1.5 NNE 15 24 8 13 1021.8 1021.8 0.0
21/02:00am 10.6 7.6 7.7 82 1.4 NNE 13 19 7 10 1021.9 - 0.0
21/01:30am 10.8 7.8 7.7 81 1.5 NNE 13 19 7 10 1022.0 1022.0 0.0
21/01:00am 11.1 8.6 8.2 82 1.4 NNE 11 17 6 9 1022.2 - 0.0
21/12:30am 11.4 9.1 9.0 85 1.2 NNE 11 17 6 9 1022.6 1022.6 0.0
21/12:00am 11.4 9.2 9.2 86 1.1 NE 11 17 6 9 1023.0 1023.0 0.0
 
Date/Time
CST
Temp
°C
App
Temp
°C
Dew
Point
Rel
Hum
%
Delta-T
°C
Wind Press
QNH
hPa
Press
MSL
hPa
Rain
since 9 am
mm
Dir
 
Spd
km/h
Gust
km/h
Spd
kts
Gust
kts
20/11:30pm 11.4 9.5 9.0 85 1.2 NE 9 13 5 7 1023.3 1023.3 0.0
20/11:00pm 10.7 8.2 8.2 84 1.2 NE 11 13 6 7 1023.3 - 0.0
20/10:30pm 11.1 8.9 7.8 80 1.6 NE 9 13 5 7 1023.7 1023.7 0.0
20/10:00pm 10.7 8.5 7.8 82 1.4 NE 9 13 5 7 1023.6 - 0.0

Other Formats:

Comma delimited format used in spreadsheet applications
http://www.bom.gov.au/fwo/IDS60801/IDS60801.94809.axf

JavaScript Object Notation format (JSON) in row-major order
http://www.bom.gov.au/fwo/IDS60801/IDS60801.94809.json